Time;durP1;ratioP1;P1;durP2;ratioP2;P2;SDS_P1;SDS_P2;PMS_P1;PMS_P2;Temp;Humidity;BMP_temperature;BMP_pressure;BME280_temperature;BME280_humidity;BME280_pressure;Samples;Min_cycle;Max_cycle;Signal;HPM_P1;HPM_P2
2023/06/08 00:00:51;;;;;;;5.07;3.22;;;;;;;17.92;64.99;97837.75;10598156;27;20047;-75
2023/06/08 00:06:20;;;;;;;6.57;3.22;;;;;;;17.92;65.25;97843.38;10587029;27;20096;-75
2023/06/08 00:11:40;;;;;;;6.57;3.33;;;;;;;17.89;65.11;97841.13;10598109;27;20039;-75
2023/06/08 00:17:05;;;;;;;6.53;3.28;;;;;;;17.80;65.51;97848.56;10611770;27;20050;-74
2023/06/08 00:22:29;;;;;;;3.92;3.35;;;;;;;17.72;65.81;97843.28;10612032;27;20039;-76
2023/06/08 00:27:50;;;;;;;6.00;3.25;;;;;;;17.59;65.73;97840.59;10597257;27;20047;-75
2023/06/08 00:33:10;;;;;;;6.40;3.80;;;;;;;17.38;66.44;97834.09;10583117;27;20047;-75
2023/06/08 00:38:33;;;;;;;6.20;3.47;;;;;;;17.23;66.10;97834.84;10596595;27;20370;-76
2023/06/08 00:43:56;;;;;;;4.45;3.03;;;;;;;17.10;67.78;97839.25;10597213;27;20039;-74
2023/06/08 00:49:18;;;;;;;4.88;3.03;;;;;;;17.06;66.74;97838.34;10596224;27;20066;-75
2023/06/08 00:54:43;;;;;;;5.00;3.30;;;;;;;16.95;67.93;97836.44;10582340;27;20046;-76
2023/06/08 01:00:07;;;;;;;6.22;3.33;;;;;;;16.83;67.52;97831.72;10582304;27;20035;-77
2023/06/08 01:05:28;;;;;;;4.57;3.10;;;;;;;16.82;67.59;97833.09;10581978;27;20047;-76
2023/06/08 01:11:14;;;;;;;4.65;3.17;;;;;;;16.85;68.46;97826.19;10581527;27;20043;-76
2023/06/08 01:16:36;;;;;;;7.50;3.40;;;;;;;16.87;68.35;97828.34;10583495;27;20377;-76
2023/06/08 01:22:19;;;;;;;4.20;3.50;;;;;;;16.90;68.64;97818.63;10595358;27;20492;-75
2023/06/08 01:27:40;;;;;;;5.10;3.20;;;;;;;16.98;68.47;97829.53;10596093;27;20046;-76
2023/06/08 01:33:01;;;;;;;5.10;3.60;;;;;;;17.06;68.52;97827.06;10595312;27;20062;-75
2023/06/08 01:38:27;;;;;;;4.68;3.08;;;;;;;17.10;68.49;97816.69;10580824;28;20046;-75
2023/06/08 01:43:50;;;;;;;9.40;3.63;;;;;;;17.14;68.36;97822.50;10581248;28;20043;-74
2023/06/08 01:49:10;;;;;;;4.43;3.30;;;;;;;17.14;68.19;97814.03;10594623;28;20040;-76
2023/06/08 01:54:31;;;;;;;5.70;3.97;;;;;;;17.14;68.60;97807.66;10608770;28;20113;-77
2023/06/08 01:59:52;;;;;;;6.05;3.58;;;;;;;17.11;68.64;97817.41;10594675;28;20035;-76
2023/06/08 02:05:14;;;;;;;5.75;3.40;;;;;;;17.05;68.83;97817.88;10594187;28;20046;-75
2023/06/08 02:10:35;;;;;;;8.38;3.72;;;;;;;17.06;69.00;97818.59;10594415;28;20063;-75
2023/06/08 02:15:58;;;;;;;6.22;4.18;;;;;;;17.01;69.14;97814.88;10570654;27;20042;-76
2023/06/08 02:21:19;;;;;;;5.95;4.03;;;;;;;17.01;68.75;97803.59;10602379;27;20070;-74
2023/06/08 02:26:39;;;;;;;7.75;4.40;;;;;;;16.91;68.63;97799.63;10616379;27;20069;-75
2023/06/08 02:32:00;;;;;;;5.00;3.33;;;;;;;16.82;69.17;97793.63;10587622;27;20055;-76
2023/06/08 02:37:21;;;;;;;6.18;4.22;;;;;;;16.81;69.76;97809.09;10615643;27;20046;-76
2023/06/08 02:42:41;;;;;;;4.93;3.75;;;;;;;16.78;69.56;97799.06;10615752;27;20043;-75
2023/06/08 02:48:06;;;;;;;5.80;3.83;;;;;;;16.73;70.01;97808.72;10587780;27;20066;-75
2023/06/08 02:53:27;;;;;;;7.32;3.97;;;;;;;16.69;70.93;97802.91;10615272;27;20517;-77
2023/06/08 02:58:48;;;;;;;7.85;4.30;;;;;;;16.64;70.55;97806.88;10600810;27;20043;-75
2023/06/08 03:04:12;;;;;;;8.30;4.38;;;;;;;16.59;70.70;97799.59;10586389;27;20047;-76
2023/06/08 03:09:42;;;;;;;5.55;4.10;;;;;;;16.55;71.22;97796.63;10601723;27;20039;-76
2023/06/08 03:15:07;;;;;;;6.93;4.47;;;;;;;16.52;70.97;97792.25;10586923;27;20066;-77
2023/06/08 03:20:29;;;;;;;5.93;3.80;;;;;;;16.45;71.04;97785.63;10614104;27;20049;-77
2023/06/08 03:25:56;;;;;;;6.63;3.92;;;;;;;16.39;71.49;97790.97;10597530;27;20043;-74
2023/06/08 03:31:20;;;;;;;6.63;4.25;;;;;;;16.35;71.79;97792.88;10620683;27;20047;-73
2023/06/08 03:36:44;;;;;;;7.07;4.07;;;;;;;16.31;71.75;97799.78;10647679;27;20030;-74
2023/06/08 03:42:15;;;;;;;6.65;4.30;;;;;;;16.32;72.22;97800.53;10607266;27;20087;-74
2023/06/08 03:47:38;;;;;;;7.68;4.28;;;;;;;16.27;72.03;97810.84;10606376;27;20038;-74
2023/06/08 03:53:01;;;;;;;8.57;5.07;;;;;;;16.28;72.71;97806.69;10620546;27;20494;-74
2023/06/08 03:58:23;;;;;;;8.10;4.80;;;;;;;16.38;72.52;97814.88;10605794;27;20446;-73
2023/06/08 04:03:44;;;;;;;7.13;4.45;;;;;;;16.47;72.78;97810.34;10619167;27;20491;-72
2023/06/08 04:09:06;;;;;;;7.15;5.10;;;;;;;16.54;72.73;97809.25;10602677;27;20062;-74
2023/06/08 04:14:27;;;;;;;6.75;4.80;;;;;;;16.65;72.65;97808.34;10619372;27;20043;-74
2023/06/08 04:19:49;;;;;;;6.15;4.50;;;;;;;16.78;72.81;97801.16;10617749;27;20117;-74
2023/06/08 04:25:11;;;;;;;5.32;3.95;;;;;;;17.00;72.78;97807.06;10603606;27;20043;-75
2023/06/08 04:30:33;;;;;;;7.75;4.75;;;;;;;17.13;72.55;97803.41;10631646;27;20047;-74
2023/06/08 04:35:54;;;;;;;7.97;4.57;;;;;;;17.33;72.76;97812.00;10611242;27;20035;-73
2023/06/08 04:41:18;;;;;;;8.32;4.55;;;;;;;17.56;72.48;97817.19;10603513;27;20105;-74
2023/06/08 04:46:42;;;;;;;7.07;4.63;;;;;;;17.78;72.45;97814.59;10629506;27;20068;-74
2023/06/08 04:52:06;;;;;;;5.20;4.10;;;;;;;18.14;71.86;97812.47;10632329;27;20035;-74
2023/06/08 04:57:27;;;;;;;4.95;4.25;;;;;;;18.50;71.38;97815.25;10613299;27;20039;-74
2023/06/08 05:02:49;;;;;;;7.38;4.53;;;;;;;18.88;71.03;97819.53;10596771;27;20496;-74
2023/06/08 05:08:11;;;;;;;8.93;4.43;;;;;;;19.25;70.36;97818.00;10600888;27;20499;-74
2023/06/08 05:13:32;;;;;;;8.30;4.63;;;;;;;19.59;69.35;97814.91;10603456;27;20126;-74
2023/06/08 05:18:53;;;;;;;7.47;4.97;;;;;;;19.87;68.24;97820.75;10609864;27;20039;-73
2023/06/08 05:24:14;;;;;;;7.68;4.50;;;;;;;20.14;66.70;97814.56;10594806;27;20473;-74
2023/06/08 05:29:35;;;;;;;5.90;4.43;;;;;;;20.29;66.35;97822.13;10595310;27;20039;-74
2023/06/08 05:34:56;;;;;;;6.43;4.80;;;;;;;20.54;65.71;97825.69;10594578;27;20549;-75
2023/06/08 05:40:17;;;;;;;8.07;4.45;;;;;;;20.68;64.04;97826.13;10594809;28;20043;-74
2023/06/08 05:45:38;;;;;;;8.52;4.50;;;;;;;20.70;63.72;97826.19;10594939;28;20515;-74
2023/06/08 05:50:59;;;;;;;5.65;4.63;;;;;;;20.67;62.73;97829.63;10600305;27;20066;-74
2023/06/08 05:56:21;;;;;;;9.30;4.90;;;;;;;20.61;61.25;97829.44;10589163;27;20036;-74
2023/06/08 06:01:42;;;;;;;6.10;4.78;;;;;;;20.88;61.54;97828.09;10603057;27;20043;-74
2023/06/08 06:07:07;;;;;;;6.47;4.90;;;;;;;21.21;60.19;97830.44;10616887;27;20054;-75
2023/06/08 06:12:28;;;;;;;8.30;5.00;;;;;;;21.25;59.08;97822.03;10602704;27;20122;-74
2023/06/08 06:17:49;;;;;;;6.75;5.43;;;;;;;21.34;58.58;97814.50;10602313;27;20044;-75
2023/06/08 06:23:10;;;;;;;6.93;5.25;;;;;;;21.62;58.40;97825.88;10602184;27;20043;-74
2023/06/08 06:28:33;;;;;;;6.38;5.63;;;;;;;21.75;57.77;97830.44;10601956;27;20043;-73
2023/06/08 06:33:54;;;;;;;9.88;7.57;;;;;;;21.99;57.46;97827.47;10601889;27;20047;-74
2023/06/08 06:39:15;;;;;;;9.07;7.18;;;;;;;22.21;56.29;97833.72;10601557;27;20035;-75
2023/06/08 06:44:36;;;;;;;9.77;5.88;;;;;;;22.56;55.84;97834.47;10587276;27;20047;-75
2023/06/08 06:49:57;;;;;;;7.35;5.15;;;;;;;22.91;55.64;97835.97;10615200;27;20044;-75
2023/06/08 06:55:18;;;;;;;10.80;5.50;;;;;;;23.19;53.86;97841.50;10600618;27;20043;-74
2023/06/08 07:00:39;;;;;;;6.88;5.20;;;;;;;23.72;53.48;97839.63;10599695;27;20393;-74
2023/06/08 07:06:00;;;;;;;8.05;4.93;;;;;;;24.35;51.46;97854.94;10600291;27;20051;-74
2023/06/08 07:11:21;;;;;;;8.32;5.65;;;;;;;24.89;49.81;97851.38;10600368;27;20039;-74
2023/06/08 07:16:48;;;;;;;6.80;5.13;;;;;;;25.18;48.71;97843.91;10574708;27;20035;-74
2023/06/08 07:22:09;;;;;;;7.50;5.45;;;;;;;25.46;47.48;97845.63;10614150;27;20035;-75
2023/06/08 07:27:38;;;;;;;7.68;5.07;;;;;;;25.69;46.73;97838.72;10615353;27;20070;-75
2023/06/08 07:32:59;;;;;;;6.30;4.65;;;;;;;26.20;44.87;97853.47;10613526;27;20055;-74
2023/06/08 07:38:20;;;;;;;5.65;4.88;;;;;;;26.34;44.42;97844.97;10599102;27;20059;-75
2023/06/08 07:43:41;;;;;;;7.85;4.35;;;;;;;26.59;43.12;97845.16;10598931;27;20050;-75
2023/06/08 07:49:01;;;;;;;9.18;4.50;;;;;;;27.20;43.02;97836.84;10598742;27;20050;-75
2023/06/08 07:54:24;;;;;;;9.93;4.95;;;;;;;28.05;41.21;97850.63;10598062;27;20043;-74
2023/06/08 07:59:45;;;;;;;7.25;4.53;;;;;;;28.47;39.30;97853.50;10598149;27;20065;-75
2023/06/08 08:05:08;;;;;;;7.90;4.70;;;;;;;29.34;38.51;97854.66;10627787;27;20045;-75
2023/06/08 08:10:29;;;;;;;5.82;4.53;;;;;;;31.24;37.33;97851.56;10598534;27;20062;-75
2023/06/08 08:15:50;;;;;;;13.32;4.65;;;;;;;32.42;34.50;97851.97;10596492;27;20035;-75
2023/06/08 08:21:11;;;;;;;6.43;4.13;;;;;;;32.79;32.52;97849.09;10597574;27;20046;-75
2023/06/08 08:26:34;;;;;;;5.05;4.15;;;;;;;33.37;31.13;97848.69;10583546;27;20043;-74
2023/06/08 08:31:56;;;;;;;7.47;4.43;;;;;;;33.43;29.54;97851.47;10597110;27;20446;-73
2023/06/08 08:37:17;;;;;;;7.95;4.28;;;;;;;33.63;29.38;97844.50;10611238;27;20054;-75
2023/06/08 08:42:43;;;;;;;5.57;4.07;;;;;;;34.45;27.58;97841.06;10626352;27;20043;-77
2023/06/08 08:48:07;;;;;;;6.85;4.22;;;;;;;34.09;27.71;97834.03;10610743;27;20039;-77
2023/06/08 08:53:30;;;;;;;5.20;3.80;;;;;;;33.80;27.67;97840.47;10596442;27;20092;-77
2023/06/08 08:58:53;;;;;;;7.78;4.63;;;;;;;34.08;27.51;97838.41;10596030;27;20501;-76
2023/06/08 09:04:14;;;;;;;7.00;3.70;;;;;;;34.67;26.47;97833.97;10610167;27;20405;-75
2023/06/08 09:09:35;;;;;;;;;;;;;;;34.81;25.60;97838.66;10595922;27;20043;-75
2023/06/08 09:14:59;;;;;;;7.95;4.53;;;;;;;34.63;25.44;97843.47;10595320;27;19920;-76
2023/06/08 09:20:31;;;;;;;5.88;3.80;;;;;;;34.78;25.60;97831.50;10581542;27;20039;-76
2023/06/08 09:25:52;;;;;;;8.07;4.40;;;;;;;34.99;25.73;97821.47;10609594;27;20774;-76
2023/06/08 09:31:15;;;;;;;8.95;4.30;;;;;;;35.14;25.10;97818.19;10595077;27;20108;-75
2023/06/08 09:36:38;;;;;;;7.85;3.80;;;;;;;34.92;24.63;97823.13;10595069;27;20130;-79
2023/06/08 09:41:59;;;;;;;6.10;3.67;;;;;;;34.80;23.86;97829.25;10609194;28;20396;-78
2023/06/08 09:47:25;;;;;;;10.40;3.20;;;;;;;34.75;24.41;97813.47;10609141;28;20043;-78
2023/06/08 09:52:47;;;;;;;7.65;3.63;;;;;;;34.09;25.21;97817.34;10604658;28;20039;-77
2023/06/08 09:58:08;;;;;;;4.90;2.60;;;;;;;34.28;24.11;97808.91;10604374;28;20481;-78
2023/06/08 10:03:36;;;;;;;4.47;2.40;;;;;;;34.42;21.68;97808.53;10605351;27;20044;-77
2023/06/08 10:08:57;;;;;;;4.15;2.20;;;;;;;34.30;22.34;97799.44;10609314;28;20068;-78
2023/06/08 10:14:17;;;;;;;;;;;;;;;33.39;22.67;97805.97;10608834;28;20039;-77
2023/06/08 10:19:38;;;;;;;8.15;2.33;;;;;;;32.84;23.33;97800.66;10594096;28;19923;-77
2023/06/08 10:24:59;;;;;;;8.05;2.70;;;;;;;32.62;24.13;97796.72;10594216;28;20080;-78
2023/06/08 10:30:33;;;;;;;5.68;3.25;;;;;;;32.17;25.15;97777.31;10623395;28;20062;-78
2023/06/08 10:36:05;;;;;;;3.85;2.85;;;;;;;32.16;25.71;97778.06;10610914;27;20074;-77
2023/06/08 10:41:50;;;;;;;5.90;3.35;;;;;;;32.11;26.11;97759.38;10615683;27;20083;-77
2023/06/08 10:47:12;;;;;;;5.00;3.22;;;;;;;30.87;27.75;97756.19;10630782;27;20047;-78
2023/06/08 10:52:45;;;;;;;9.60;2.67;;;;;;;31.17;27.06;97752.19;10615540;27;20404;-79
2023/06/08 10:58:15;;;;;;;3.75;2.58;;;;;;;29.80;25.65;97746.50;10629314;27;20045;-76
2023/06/08 11:03:44;;;;;;;7.45;2.78;;;;;;;29.73;26.90;97733.66;10614878;27;20039;-77
2023/06/08 11:09:06;;;;;;;6.20;2.83;;;;;;;29.61;26.98;97728.69;10615082;27;20396;-75
2023/06/08 11:14:27;;;;;;;5.03;2.90;;;;;;;29.72;28.05;97730.03;10600144;27;20039;-76
2023/06/08 11:19:48;;;;;;;4.47;3.08;;;;;;;29.79;27.20;97722.78;10600111;27;20066;-77
2023/06/08 11:25:09;;;;;;;2.80;2.07;;;;;;;30.77;25.66;97710.22;10614268;27;20047;-76
2023/06/08 11:30:34;;;;;;;3.70;2.40;;;;;;;31.33;24.52;97708.72;10613722;27;20047;-77
2023/06/08 11:35:56;;;;;;;3.45;2.30;;;;;;;30.45;25.97;97712.03;10600114;27;20042;-75
2023/06/08 11:41:20;;;;;;;4.47;2.63;;;;;;;29.44;26.41;97710.84;10613396;27;20043;-76
2023/06/08 11:46:41;;;;;;;8.35;2.47;;;;;;;28.24;26.87;97712.16;10599395;27;20047;-76
2023/06/08 11:52:03;;;;;;;5.43;2.28;;;;;;;27.85;27.27;97725.16;10598747;27;20110;-76
2023/06/08 11:57:39;;;;;;;4.65;2.55;;;;;;;27.89;28.34;97699.31;10612473;27;20522;-76
2023/06/08 12:03:01;;;;;;;3.75;2.65;;;;;;;28.82;28.34;97703.34;10612499;27;20038;-76
2023/06/08 12:08:22;;;;;;;5.03;1.85;;;;;;;28.83;27.68;97702.59;10597898;27;20126;-75
2023/06/08 12:13:43;;;;;;;9.45;2.42;;;;;;;29.75;26.95;97696.94;10612263;27;20046;-76
2023/06/08 12:19:06;;;;;;;4.10;1.88;;;;;;;29.98;24.63;97703.19;10611457;27;20039;-75
2023/06/08 12:24:27;;;;;;;3.00;1.70;;;;;;;29.46;22.92;97699.34;10611381;27;20470;-76
2023/06/08 12:29:49;;;;;;;6.07;2.00;;;;;;;29.37;22.82;97703.72;10611576;27;20035;-76
2023/06/08 12:35:10;;;;;;;;;;;;;;;29.41;22.21;97697.22;10583301;28;20421;-76
2023/06/08 12:40:31;;;;;;;4.18;1.77;;;;;;;29.45;22.23;97697.19;10568608;28;20388;-76
2023/06/08 12:45:53;;;;;;;2.28;1.70;;;;;;;29.52;22.92;97695.72;10568452;28;20401;-74
2023/06/08 12:51:15;;;;;;;5.85;1.98;;;;;;;29.87;22.23;97699.69;10582522;28;20108;-75
2023/06/08 12:56:36;;;;;;;4.35;1.95;;;;;;;29.99;22.19;97701.03;10582009;28;20152;-75
2023/06/08 13:01:57;;;;;;;4.18;1.58;;;;;;;30.49;22.31;97694.72;10581367;28;20050;-74
2023/06/08 13:07:18;;;;;;;5.93;1.83;;;;;;;30.55;22.13;97701.84;10581861;28;20051;-77
2023/06/08 13:12:41;;;;;;;4.87;2.00;;;;;;;30.41;23.31;97705.63;10567463;28;20035;-77
2023/06/08 13:18:06;;;;;;;3.08;2.05;;;;;;;29.74;26.14;97703.44;10582884;28;20443;-77
2023/06/08 13:23:30;;;;;;;3.83;1.77;;;;;;;28.87;28.62;97713.38;10581280;28;20043;-76
2023/06/08 13:28:51;;;;;;;2.80;1.83;;;;;;;28.62;29.66;97719.22;10595247;27;20048;-76
2023/06/08 13:34:14;;;;;;;3.90;1.95;;;;;;;28.27;30.13;97712.16;10611013;27;20442;-77
2023/06/08 13:39:35;;;;;;;4.73;2.03;;;;;;;27.74;30.82;97720.88;10594714;27;20519;-75
2023/06/08 13:44:56;;;;;;;5.23;2.53;;;;;;;27.55;31.90;97726.59;10609200;28;20035;-77
2023/06/08 13:50:18;;;;;;;3.13;1.90;;;;;;;27.28;32.34;97730.88;10624316;28;20043;-77
2023/06/08 13:55:39;;;;;;;4.30;1.87;;;;;;;26.83;32.75;97725.03;10608690;28;20439;-78
2023/06/08 14:01:02;;;;;;;4.80;1.97;;;;;;;27.07;33.15;97725.09;10608411;28;20043;-76
2023/06/08 14:06:23;;;;;;;4.15;2.17;;;;;;;26.88;33.77;97717.16;10611998;27;20396;-76
2023/06/08 14:11:44;;;;;;;3.50;1.97;;;;;;;27.22;33.74;97708.66;10635368;27;20035;-76
2023/06/08 14:17:05;;;;;;;4.47;1.90;;;;;;;26.83;34.13;97690.69;10622703;27;20039;-76
2023/06/08 14:22:26;;;;;;;2.95;1.90;;;;;;;26.68;34.28;97692.06;10628202;27;20046;-74
2023/06/08 14:27:47;;;;;;;4.75;1.90;;;;;;;26.39;35.08;97691.94;10637900;27;20039;-75
2023/06/08 14:33:11;;;;;;;3.45;2.00;;;;;;;26.59;35.28;97667.69;10621600;27;20050;-76
2023/06/08 14:38:32;;;;;;;3.90;1.80;;;;;;;26.38;34.87;97670.50;10637976;27;20040;-75
2023/06/08 14:43:53;;;;;;;3.72;1.58;;;;;;;26.58;34.55;97661.25;10615853;27;20468;-74
2023/06/08 14:49:15;;;;;;;5.05;2.08;;;;;;;26.56;34.26;97646.94;10601213;27;20066;-75
2023/06/08 14:54:36;;;;;;;5.60;2.17;;;;;;;26.41;34.38;97654.03;10615429;27;20046;-76
2023/06/08 14:59:57;;;;;;;3.38;1.85;;;;;;;26.27;34.75;97654.69;10600663;27;20040;-75
2023/06/08 15:05:21;;;;;;;4.00;1.70;;;;;;;26.25;34.49;97654.69;10600751;27;20039;-74
2023/06/08 15:10:42;;;;;;;3.38;1.92;;;;;;;25.82;34.85;97651.59;10600625;27;20043;-75
2023/06/08 15:16:03;;;;;;;4.47;1.60;;;;;;;25.67;35.36;97632.88;10614175;27;20046;-74
2023/06/08 15:21:25;;;;;;;3.60;2.17;;;;;;;25.53;35.90;97629.97;10599574;27;20226;-75
2023/06/08 15:26:46;;;;;;;8.02;1.92;;;;;;;25.31;36.03;97634.09;10613994;27;20054;-76
2023/06/08 15:32:07;;;;;;;2.83;1.75;;;;;;;25.30;36.35;97624.09;10599648;27;20047;-74
2023/06/08 15:37:29;;;;;;;5.38;2.05;;;;;;;25.09;37.26;97628.19;10599183;27;20035;-75
2023/06/08 15:42:50;;;;;;;3.60;1.50;;;;;;;25.06;37.66;97623.88;10584741;27;20047;-76
2023/06/08 15:48:11;;;;;;;4.75;2.00;;;;;;;24.88;38.17;97620.84;10598875;27;20043;-75
2023/06/08 15:53:32;;;;;;;3.70;1.65;;;;;;;24.53;38.86;97617.66;10627921;27;20039;-75
2023/06/08 15:58:54;;;;;;;4.90;2.13;;;;;;;24.57;39.10;97617.69;10612487;27;20422;-75
2023/06/08 16:04:15;;;;;;;3.72;2.03;;;;;;;24.49;38.91;97617.63;10615139;27;20058;-72
2023/06/08 16:09:36;;;;;;;3.95;2.40;;;;;;;24.66;39.49;97604.94;10641380;27;20042;-73
2023/06/08 16:14:58;;;;;;;3.45;2.20;;;;;;;24.81;39.25;97606.53;10640387;27;20039;-75
2023/06/08 16:20:19;;;;;;;3.07;2.00;;;;;;;25.09;38.86;97620.38;10640119;27;20045;-75
2023/06/08 16:25:40;;;;;;;4.25;2.25;;;;;;;25.10;38.27;97613.22;10639829;27;20039;-75
2023/06/08 16:31:01;;;;;;;2.83;1.98;;;;;;;24.80;39.13;97610.81;10639268;27;20049;-76
2023/06/08 16:36:22;;;;;;;3.47;2.00;;;;;;;24.73;38.91;97603.59;10625525;27;20038;-76
2023/06/08 16:41:44;;;;;;;3.20;1.77;;;;;;;24.70;38.77;97607.84;10603259;27;20096;-82
2023/06/08 16:47:08;;;;;;;3.78;1.85;;;;;;;24.52;38.54;97616.22;10583996;27;20046;-75
2023/06/08 16:52:29;;;;;;;4.60;2.00;;;;;;;24.59;38.78;97603.44;10616137;27;20468;-76
2023/06/08 16:57:50;;;;;;;4.82;2.30;;;;;;;24.55;38.24;97601.28;10635935;27;20087;-77
2023/06/08 17:03:11;;;;;;;3.83;2.25;;;;;;;24.22;38.51;97603.06;10625716;27;20510;-81
2023/06/08 17:08:35;;;;;;;4.45;1.73;;;;;;;23.93;39.24;97604.09;10581688;27;20140;-79
2023/06/08 17:13:58;;;;;;;6.22;2.13;;;;;;;23.80;39.74;97611.06;10601891;27;20039;-76
2023/06/08 17:19:19;;;;;;;4.32;1.83;;;;;;;23.66;40.21;97606.63;10599680;27;20035;-78
2023/06/08 17:24:40;;;;;;;4.13;1.95;;;;;;;23.48;40.33;97600.63;10627597;27;20042;-76
2023/06/08 17:30:01;;;;;;;2.72;1.80;;;;;;;23.31;40.66;97596.81;10652564;27;20054;-82
2023/06/08 17:35:22;;;;;;;4.47;1.92;;;;;;;23.33;41.45;97582.59;10666972;27;20075;-75
2023/06/08 17:40:43;;;;;;;4.22;1.85;;;;;;;23.37;41.33;97593.34;10622975;27;20042;-76
2023/06/08 17:46:04;;;;;;;4.63;1.75;;;;;;;23.43;41.53;97590.56;10636863;27;20495;-78
2023/06/08 17:51:25;;;;;;;3.67;1.63;;;;;;;23.51;41.60;97596.41;10637211;27;20432;-78
2023/06/08 17:56:46;;;;;;;3.58;1.67;;;;;;;23.50;41.63;97589.25;10636790;27;20043;-73
2023/06/08 18:02:07;;;;;;;6.20;2.33;;;;;;;23.40;41.71;97589.13;10648865;27;20050;-72
2023/06/08 18:07:27;;;;;;;3.20;2.20;;;;;;;23.35;41.85;97587.59;10651269;27;20111;-75
2023/06/08 18:12:48;;;;;;;4.03;2.20;;;;;;;23.14;42.18;97601.53;10636595;27;20041;-75
2023/06/08 18:18:11;;;;;;;6.63;2.20;;;;;;;22.89;42.47;97610.38;10650962;27;20039;-75
2023/06/08 18:23:33;;;;;;;3.72;2.53;;;;;;;22.57;42.98;97614.78;10650923;27;20039;-74
2023/06/08 18:28:56;;;;;;;3.85;2.03;;;;;;;22.38;43.74;97607.31;10636533;27;20043;-74
2023/06/08 18:34:17;;;;;;;3.70;2.28;;;;;;;22.13;43.69;97611.09;10633265;27;20069;-78
2023/06/08 18:39:38;;;;;;;4.70;2.55;;;;;;;21.85;44.61;97609.09;10596287;28;20039;-77
2023/06/08 18:45:17;;;;;;;4.15;2.67;;;;;;;21.67;44.81;97615.09;10599187;28;20476;-79
2023/06/08 18:50:40;;;;;;;4.70;2.00;;;;;;;21.51;45.45;97609.03;10593569;28;20116;-80
2023/06/08 18:56:00;;;;;;;6.77;2.20;;;;;;;21.34;45.67;97607.97;10608378;27;20039;-78
2023/06/08 19:01:22;;;;;;;6.82;2.28;;;;;;;21.08;46.41;97607.31;10586486;27;20066;-79
2023/06/08 19:06:44;;;;;;;2.58;1.95;;;;;;;20.83;46.74;97603.88;10600613;27;20039;-77
2023/06/08 19:12:07;;;;;;;4.20;2.20;;;;;;;20.60;47.21;97618.88;10615150;27;20035;-78
2023/06/08 19:17:30;;;;;;;6.13;2.63;;;;;;;20.40;48.00;97615.50;10614207;27;20297;-77
2023/06/08 19:22:51;;;;;;;3.88;2.28;;;;;;;20.30;49.19;97627.28;10639358;27;20050;-74
2023/06/08 19:28:12;;;;;;;6.18;2.28;;;;;;;20.18;49.37;97627.66;10656713;27;20046;-80
2023/06/08 19:33:34;;;;;;;6.03;2.40;;;;;;;20.09;50.19;97619.59;10642091;27;20412;-80
2023/06/08 19:38:55;;;;;;;5.68;2.75;;;;;;;19.99;50.54;97637.75;10656794;27;20043;-80
2023/06/08 19:44:15;;;;;;;5.57;3.65;;;;;;;20.04;54.19;97698.06;10656142;27;20480;-80
2023/06/08 19:49:36;;;;;;;5.53;4.00;;;;;;;19.37;59.47;97679.00;10656138;27;20404;-73
2023/06/08 19:54:57;;;;;;;8.27;3.83;;;;;;;19.14;60.58;97678.28;10641359;27;20043;-74
2023/06/08 20:00:18;;;;;;;5.28;3.40;;;;;;;18.98;62.23;97682.66;10641204;27;20050;-75
2023/06/08 20:05:39;;;;;;;6.38;3.35;;;;;;;18.94;63.15;97659.91;10655289;27;20492;-74
2023/06/08 20:10:59;;;;;;;5.40;3.20;;;;;;;19.00;62.65;97662.94;10654788;27;20070;-74
2023/06/08 20:16:21;;;;;;;6.53;3.05;;;;;;;18.86;62.62;97666.75;10604962;27;20031;-74
2023/06/08 20:21:42;;;;;;;6.15;2.78;;;;;;;18.71;62.76;97649.94;10623171;27;20396;-73
2023/06/08 20:27:03;;;;;;;5.75;3.10;;;;;;;18.58;62.63;97657.25;10622908;27;20042;-74
2023/06/08 20:32:23;;;;;;;6.05;3.08;;;;;;;18.36;63.46;97645.91;10633320;27;20441;-73
2023/06/08 20:37:44;;;;;;;6.88;2.90;;;;;;;18.35;63.20;97655.75;10630985;27;20059;-74
2023/06/08 20:43:05;;;;;;;4.78;2.90;;;;;;;18.24;63.89;97651.13;10630862;27;20066;-74
2023/06/08 20:48:26;;;;;;;4.18;2.50;;;;;;;18.31;63.75;97647.13;10622315;27;20449;-75
2023/06/08 20:53:47;;;;;;;7.72;2.70;;;;;;;18.30;63.68;97659.81;10599723;27;20043;-73
2023/06/08 20:59:08;;;;;;;3.25;2.40;;;;;;;18.28;63.62;97657.63;10625862;27;20043;-74
2023/06/08 21:04:31;;;;;;;5.07;2.80;;;;;;;18.21;63.45;97663.72;10595928;27;20050;-74
2023/06/08 21:09:52;;;;;;;5.07;2.35;;;;;;;18.21;63.25;97669.38;10610048;27;20049;-74
2023/06/08 21:15:13;;;;;;;4.28;2.78;;;;;;;18.11;63.53;97660.53;10581600;27;20043;-74
2023/06/08 21:20:34;;;;;;;5.97;2.80;;;;;;;18.06;63.86;97659.66;10609221;27;20043;-73
2023/06/08 21:25:54;;;;;;;6.10;2.80;;;;;;;17.96;63.81;97660.00;10609701;27;20036;-74
2023/06/08 21:31:15;;;;;;;6.25;2.38;;;;;;;17.90;63.84;97665.44;10595135;27;20148;-74
2023/06/08 21:36:36;;;;;;;4.60;2.60;;;;;;;17.85;64.51;97658.16;10581132;27;20039;-73
2023/06/08 21:41:57;;;;;;;6.15;2.40;;;;;;;17.85;64.38;97660.25;10609315;27;20046;-74
2023/06/08 21:47:18;;;;;;;5.75;2.42;;;;;;;17.86;64.67;97648.34;10609059;28;20043;-74
2023/06/08 21:52:40;;;;;;;4.90;2.25;;;;;;;17.84;64.07;97644.69;10594820;28;20061;-73
2023/06/08 21:58:02;;;;;;;6.28;2.60;;;;;;;17.82;64.52;97653.81;10594858;28;20046;-74
2023/06/08 22:03:22;;;;;;;7.05;2.38;;;;;;;17.80;64.73;97634.00;10608814;28;20046;-75
2023/06/08 22:08:43;;;;;;;3.92;2.80;;;;;;;17.77;64.31;97646.59;10594648;28;20092;-74
2023/06/08 22:14:05;;;;;;;6.95;2.40;;;;;;;17.76;64.51;97645.13;10594435;28;20377;-74
2023/06/08 22:19:28;;;;;;;5.30;2.35;;;;;;;17.73;64.73;97646.41;10594680;28;20124;-73
2023/06/08 22:24:49;;;;;;;3.92;2.58;;;;;;;17.66;64.32;97656.00;10594278;28;20047;-74
2023/06/08 22:30:10;;;;;;;4.82;3.03;;;;;;;17.67;65.11;97649.72;10580113;27;20051;-74
2023/06/08 22:35:31;;;;;;;4.35;3.00;;;;;;;17.67;64.77;97649.72;10601849;27;20047;-74
2023/06/08 22:40:52;;;;;;;5.78;2.65;;;;;;;17.66;64.89;97648.28;10601753;27;20071;-74
2023/06/08 22:46:13;;;;;;;6.50;2.63;;;;;;;17.69;64.61;97640.59;10588205;27;20043;-74
2023/06/08 22:51:34;;;;;;;5.68;2.85;;;;;;;17.74;65.02;97634.47;10601216;27;20039;-74
2023/06/08 22:56:57;;;;;;;6.53;2.95;;;;;;;17.80;64.62;97636.81;10615648;27;20080;-74
2023/06/08 23:02:18;;;;;;;6.65;2.92;;;;;;;17.77;64.78;97624.00;10601120;27;20035;-75
2023/06/08 23:07:40;;;;;;;5.93;2.92;;;;;;;17.77;64.73;97624.00;10586528;27;20050;-75
2023/06/08 23:13:01;;;;;;;4.20;2.90;;;;;;;17.72;64.56;97611.09;10600789;27;20047;-74
2023/06/08 23:18:30;;;;;;;4.90;2.80;;;;;;;17.76;64.84;97619.72;10600295;27;20046;-75
2023/06/08 23:23:51;;;;;;;3.97;2.38;;;;;;;17.77;64.57;97607.06;10574279;27;20066;-75
2023/06/08 23:29:12;;;;;;;4.45;2.80;;;;;;;17.84;64.65;97614.38;10614316;27;20053;-76
2023/06/08 23:34:33;;;;;;;4.55;2.60;;;;;;;17.92;64.16;97600.56;10599711;27;20130;-74
2023/06/08 23:39:54;;;;;;;3.53;2.50;;;;;;;18.03;63.80;97615.75;10599422;27;20119;-75
2023/06/08 23:45:17;;;;;;;3.45;2.40;;;;;;;18.13;63.52;97601.28;10613144;27;20092;-75
2023/06/08 23:50:37;;;;;;;5.82;2.75;;;;;;;18.23;63.10;97604.47;10599890;27;20070;-74
2023/06/08 23:55:58;;;;;;;4.10;2.60;;;;;;;18.29;62.69;97596.22;10607035;27;20046;-76
